createdAt,value
2023-05-08T00:01:01.990Z,3.75
2023-05-08T00:02:33.941Z,4.32
2023-05-08T00:04:06.149Z,4.78
2023-05-08T00:05:38.328Z,4.63
2023-05-08T00:07:10.198Z,4.55
2023-05-08T00:08:42.209Z,3.70
2023-05-08T00:10:14.343Z,4.32
2023-05-08T00:11:46.358Z,3.83
2023-05-08T00:13:18.553Z,3.83
2023-05-08T00:14:50.419Z,4.10
2023-05-08T00:16:22.371Z,3.97
2023-05-08T00:17:54.265Z,3.75
2023-05-08T00:19:26.132Z,4.20
2023-05-08T00:20:57.912Z,4.57
2023-05-08T00:22:29.721Z,4.95
2023-05-08T00:24:01.556Z,4.15
2023-05-08T00:25:33.676Z,4.43
2023-05-08T00:27:05.814Z,5.28
2023-05-08T00:28:37.961Z,4.20
2023-05-08T00:30:10.456Z,4.32
2023-05-08T00:31:42.429Z,4.78
2023-05-08T00:33:14.385Z,4.00
2023-05-08T00:34:46.319Z,4.35
2023-05-08T00:36:18.312Z,4.45
2023-05-08T00:37:51.497Z,4.57
2023-05-08T00:39:24.043Z,5.70
2023-05-08T00:40:55.887Z,5.10
2023-05-08T00:42:27.679Z,5.07
2023-05-08T00:43:59.530Z,4.38
2023-05-08T00:45:39.601Z,5.32
2023-05-08T00:47:11.984Z,4.93
2023-05-08T00:48:44.300Z,3.97
2023-05-08T00:50:16.539Z,4.10
2023-05-08T00:51:51.566Z,6.30
2023-05-08T00:53:23.746Z,4.80
2023-05-08T00:54:56.177Z,4.80
2023-05-08T00:56:28.691Z,4.25
2023-05-08T00:58:00.876Z,4.15
2023-05-08T00:59:34.011Z,4.07
2023-05-08T01:01:05.924Z,5.03
2023-05-08T01:02:39.816Z,4.25
2023-05-08T01:04:11.767Z,6.03
2023-05-08T01:05:43.945Z,4.35
2023-05-08T01:07:15.811Z,4.32
2023-05-08T01:08:47.613Z,4.03
2023-05-08T01:10:19.633Z,4.10
2023-05-08T01:12:14.605Z,4.78
2023-05-08T01:14:07.315Z,5.30
2023-05-08T01:15:47.719Z,4.57
2023-05-08T01:17:43.472Z,4.43
2023-05-08T01:19:40.977Z,5.28
2023-05-08T01:21:32.500Z,5.82
2023-05-08T01:23:28.932Z,5.70
2023-05-08T01:25:12.720Z,4.93
2023-05-08T01:27:03.080Z,5.10
2023-05-08T01:28:53.646Z,4.20
2023-05-08T01:30:53.315Z,4.30
2023-05-08T01:32:27.649Z,5.43
2023-05-08T01:34:06.857Z,5.13
2023-05-08T01:35:47.939Z,4.43
2023-05-08T01:37:28.314Z,4.28
2023-05-08T01:39:19.175Z,4.40
2023-05-08T01:40:59.811Z,4.88
2023-05-08T01:42:49.488Z,4.10
2023-05-08T01:44:24.771Z,4.20
2023-05-08T01:45:59.563Z,5.05
2023-05-08T01:47:37.741Z,5.25
2023-05-08T01:49:15.073Z,4.72
2023-05-08T01:50:50.952Z,5.05
2023-05-08T01:52:32.188Z,4.55
2023-05-08T01:54:08.734Z,4.88
2023-05-08T01:55:43.993Z,4.07
2023-05-08T01:57:18.733Z,4.45
2023-05-08T01:58:53.156Z,5.25
2023-05-08T02:00:28.717Z,5.10
2023-05-08T02:02:03.040Z,4.35
2023-05-08T02:03:35.701Z,4.30
2023-05-08T02:05:08.914Z,4.95
2023-05-08T02:06:41.753Z,5.60
2023-05-08T02:08:15.489Z,6.60
2023-05-08T02:09:48.725Z,4.88
2023-05-08T02:11:22.001Z,5.10
2023-05-08T02:12:56.066Z,4.93
2023-05-08T02:14:29.862Z,4.88
2023-05-08T02:16:02.762Z,5.07
2023-05-08T02:17:38.453Z,5.68
2023-05-08T02:19:11.813Z,4.82
2023-05-08T02:20:44.141Z,5.05
2023-05-08T02:22:18.420Z,4.68
2023-05-08T02:23:52.263Z,5.03
2023-05-08T02:25:25.699Z,5.95
2023-05-08T02:26:58.600Z,4.93
2023-05-08T02:28:33.695Z,4.75
2023-05-08T02:30:06.780Z,5.10
2023-05-08T02:31:39.923Z,4.50
2023-05-08T02:33:13.553Z,5.07
2023-05-08T02:34:58.912Z,5.80
2023-05-08T02:36:35.867Z,5.60
2023-05-08T02:38:11.050Z,5.07
2023-05-08T02:39:45.708Z,5.47
2023-05-08T02:41:22.431Z,6.70
2023-05-08T02:42:55.462Z,5.75
2023-05-08T02:44:27.714Z,4.22
2023-05-08T02:46:10.167Z,5.38
2023-05-08T02:48:00.337Z,5.15
2023-05-08T02:49:40.482Z,4.65
2023-05-08T02:51:24.057Z,4.70
2023-05-08T02:53:03.477Z,5.43
2023-05-08T02:54:40.128Z,5.00
2023-05-08T02:56:22.274Z,4.82
2023-05-08T02:58:29.809Z,5.15
2023-05-08T03:00:12.539Z,6.47
2023-05-08T03:01:49.774Z,5.85
2023-05-08T03:03:28.364Z,5.72
2023-05-08T03:05:07.113Z,5.07
2023-05-08T03:06:41.827Z,5.60
2023-05-08T03:08:18.662Z,5.60
2023-05-08T03:09:57.130Z,5.32
2023-05-08T03:11:37.108Z,6.40
2023-05-08T03:13:12.267Z,5.60
2023-05-08T03:15:08.556Z,6.55
2023-05-08T03:16:44.833Z,5.22
2023-05-08T03:18:23.373Z,6.72
2023-05-08T03:19:58.359Z,5.93
2023-05-08T03:21:32.521Z,6.35
2023-05-08T03:23:08.450Z,6.18
2023-05-08T03:24:43.137Z,6.72
2023-05-08T03:26:21.464Z,5.57
2023-05-08T03:27:55.484Z,5.72
2023-05-08T03:29:29.399Z,6.45
2023-05-08T03:31:02.173Z,6.15
2023-05-08T03:32:35.385Z,5.97
2023-05-08T03:34:09.828Z,6.25
2023-05-08T03:35:42.837Z,6.65
2023-05-08T03:37:15.283Z,5.88
2023-05-08T03:38:47.649Z,5.93
2023-05-08T03:40:20.281Z,5.88
2023-05-08T03:41:52.307Z,7.05
2023-05-08T03:43:25.764Z,5.32
2023-05-08T03:44:58.051Z,5.90
2023-05-08T03:46:33.101Z,5.82
2023-05-08T03:48:07.130Z,5.70
2023-05-08T03:49:39.720Z,5.32
2023-05-08T03:51:12.387Z,5.78
2023-05-08T03:52:45.284Z,5.25
2023-05-08T03:54:17.152Z,5.75
2023-05-08T03:55:49.566Z,5.80
2023-05-08T03:57:23.198Z,6.30
2023-05-08T03:59:00.783Z,5.63
2023-05-08T04:00:43.767Z,6.50
2023-05-08T04:02:36.836Z,5.93
2023-05-08T04:04:16.738Z,5.88
2023-05-08T04:05:59.940Z,5.75
2023-05-08T04:07:43.262Z,5.22
2023-05-08T04:09:29.082Z,5.43
2023-05-08T04:11:12.328Z,5.57
2023-05-08T04:13:02.599Z,5.25
2023-05-08T04:14:43.177Z,5.45
2023-05-08T04:16:22.012Z,5.27
2023-05-08T04:17:57.874Z,5.90
2023-05-08T04:19:33.551Z,5.95
2023-05-08T04:21:11.111Z,6.53
2023-05-08T04:22:45.248Z,6.13
2023-05-08T04:24:17.674Z,5.68
2023-05-08T04:25:53.389Z,6.80
2023-05-08T04:27:25.968Z,5.38
2023-05-08T04:28:58.235Z,6.15
2023-05-08T04:30:30.873Z,6.88
2023-05-08T04:32:05.374Z,5.53
2023-05-08T04:33:39.325Z,4.93
2023-05-08T04:35:13.642Z,5.75
2023-05-08T04:36:45.900Z,5.07
2023-05-08T04:38:17.773Z,4.93
2023-05-08T04:39:51.544Z,5.28
2023-05-08T04:41:23.418Z,4.78
2023-05-08T04:42:55.702Z,6.95
2023-05-08T04:44:28.695Z,5.22
2023-05-08T04:46:00.566Z,6.05
2023-05-08T04:47:32.798Z,6.00
2023-05-08T04:49:05.752Z,6.03
2023-05-08T04:50:37.673Z,4.80
2023-05-08T04:52:09.842Z,4.47
2023-05-08T04:53:42.490Z,5.15
2023-05-08T04:55:14.472Z,5.55
2023-05-08T04:56:46.544Z,6.38
2023-05-08T04:58:18.356Z,5.53
2023-05-08T04:59:50.338Z,6.32
2023-05-08T05:01:22.228Z,6.43
2023-05-08T05:02:54.237Z,5.28
2023-05-08T05:04:26.269Z,5.47
2023-05-08T05:06:01.295Z,5.63
2023-05-08T05:07:33.369Z,5.65
2023-05-08T05:09:05.491Z,5.63
2023-05-08T05:10:39.320Z,5.95
2023-05-08T05:12:11.319Z,5.93
2023-05-08T05:13:43.494Z,4.95
2023-05-08T05:15:15.911Z,6.30
2023-05-08T05:16:48.020Z,5.65
2023-05-08T05:18:20.918Z,4.65
2023-05-08T05:19:53.685Z,5.43
2023-05-08T05:21:26.319Z,4.82
2023-05-08T05:22:58.156Z,4.80
2023-05-08T05:24:30.450Z,4.57
2023-05-08T05:26:03.070Z,4.32
2023-05-08T05:27:37.099Z,4.53
2023-05-08T05:29:10.179Z,4.70
2023-05-08T05:30:42.100Z,4.80
2023-05-08T05:32:14.092Z,4.60
2023-05-08T05:33:46.820Z,4.30
2023-05-08T05:35:19.146Z,5.18
2023-05-08T05:36:51.291Z,4.45
2023-05-08T05:38:23.398Z,4.47
2023-05-08T05:39:55.363Z,4.00
2023-05-08T05:41:27.309Z,4.43
2023-05-08T05:42:59.878Z,3.67
2023-05-08T05:44:32.064Z,3.53
2023-05-08T05:46:05.528Z,3.47
2023-05-08T05:47:38.232Z,3.83
2023-05-08T05:49:12.043Z,8.18
2023-05-08T05:50:43.894Z,3.55
2023-05-08T05:52:16.011Z,3.00
2023-05-08T05:53:48.033Z,3.40
2023-05-08T05:55:20.065Z,3.10
2023-05-08T05:56:52.940Z,3.20
2023-05-08T05:58:25.000Z,3.40
2023-05-08T05:59:59.830Z,2.80
2023-05-08T06:01:32.359Z,2.92
2023-05-08T06:03:04.692Z,3.33
2023-05-08T06:04:37.086Z,3.30
2023-05-08T06:06:09.215Z,3.80
2023-05-08T06:07:41.072Z,3.22
2023-05-08T06:09:12.932Z,3.10
2023-05-08T06:10:44.839Z,2.83
2023-05-08T06:12:18.422Z,2.65
2023-05-08T06:13:50.836Z,4.00
2023-05-08T06:15:23.637Z,2.95
2023-05-08T06:16:55.478Z,2.70
2023-05-08T06:18:27.369Z,2.80
2023-05-08T06:19:59.191Z,2.92
2023-05-08T06:21:31.005Z,3.00
2023-05-08T06:23:02.830Z,2.85
2023-05-08T06:24:35.800Z,2.88
2023-05-08T06:26:07.656Z,2.95
2023-05-08T06:27:39.619Z,3.13
2023-05-08T06:29:11.405Z,2.67
2023-05-08T06:30:43.422Z,2.63
2023-05-08T06:32:15.298Z,3.08
2023-05-08T06:33:47.127Z,2.50
2023-05-08T06:35:19.724Z,2.67
2023-05-08T06:36:51.532Z,2.97
2023-05-08T06:38:23.391Z,2.83
2023-05-08T06:40:10.333Z,2.70
2023-05-08T06:41:47.560Z,2.30
2023-05-08T06:43:28.083Z,2.60
2023-05-08T06:45:00.230Z,2.67
2023-05-08T06:46:32.147Z,2.40
2023-05-08T06:48:04.169Z,2.30
2023-05-08T06:49:36.629Z,3.05
2023-05-08T06:51:08.451Z,2.25
2023-05-08T06:52:40.257Z,2.20
2023-05-08T06:54:12.075Z,2.30
2023-05-08T06:55:44.223Z,2.53
2023-05-08T06:57:16.423Z,1.80
2023-05-08T06:58:56.952Z,1.75
2023-05-08T07:00:32.719Z,2.38
2023-05-08T07:02:04.662Z,2.30
2023-05-08T07:03:37.252Z,2.53
2023-05-08T07:05:09.699Z,2.15
2023-05-08T07:06:41.664Z,1.92
2023-05-08T07:08:13.485Z,1.88
2023-05-08T07:09:46.165Z,3.08
2023-05-08T07:11:18.100Z,1.88
2023-05-08T07:12:50.075Z,1.80
2023-05-08T07:14:21.941Z,2.47
2023-05-08T07:15:53.742Z,2.60
2023-05-08T07:17:25.772Z,2.22
2023-05-08T07:18:57.620Z,2.00
2023-05-08T07:20:29.696Z,1.75
2023-05-08T07:22:01.932Z,1.98
2023-05-08T07:23:33.791Z,2.00
2023-05-08T07:25:06.270Z,1.50
2023-05-08T07:26:38.102Z,1.60
2023-05-08T07:28:09.997Z,1.60
2023-05-08T07:29:42.835Z,2.30
2023-05-08T07:31:14.857Z,2.38
2023-05-08T07:32:46.770Z,1.73
2023-05-08T07:34:19.315Z,2.17
2023-05-08T07:35:51.231Z,3.30
2023-05-08T07:37:23.742Z,1.75
2023-05-08T07:38:55.609Z,1.63
2023-05-08T07:40:27.456Z,1.52
2023-05-08T07:41:59.287Z,1.75
2023-05-08T07:43:32.149Z,1.40
2023-05-08T07:45:04.186Z,1.60
2023-05-08T07:46:36.244Z,1.70
2023-05-08T07:48:08.724Z,1.85
2023-05-08T07:49:40.564Z,1.50
2023-05-08T07:51:12.434Z,1.65
2023-05-08T07:52:46.541Z,2.35
2023-05-08T07:54:19.182Z,1.35
2023-05-08T07:55:51.037Z,1.40
2023-05-08T07:57:23.119Z,1.40
2023-05-08T07:58:54.907Z,1.27
2023-05-08T08:00:29.944Z,2.72
2023-05-08T08:02:01.942Z,2.88
2023-05-08T08:03:34.003Z,2.53
2023-05-08T08:05:06.948Z,1.35
2023-05-08T08:06:38.797Z,1.10
2023-05-08T08:08:10.752Z,2.30
2023-05-08T08:09:42.634Z,1.38
2023-05-08T08:11:14.456Z,1.17
2023-05-08T08:12:46.320Z,1.40
2023-05-08T08:14:18.145Z,1.15
2023-05-08T08:15:50.006Z,1.15
2023-05-08T08:17:22.638Z,1.50
2023-05-08T08:18:54.994Z,1.00
2023-05-08T08:20:27.003Z,1.05
2023-05-08T08:21:58.825Z,1.52
2023-05-08T08:23:30.733Z,0.98
2023-05-08T08:25:03.377Z,1.15
2023-05-08T08:26:35.502Z,1.17
2023-05-08T08:28:07.698Z,1.35
2023-05-08T08:29:39.638Z,1.75
2023-05-08T08:31:11.479Z,0.95
2023-05-08T08:32:43.387Z,1.05
2023-05-08T08:34:15.259Z,0.95
2023-05-08T08:35:47.144Z,0.95
2023-05-08T08:37:18.976Z,1.60
2023-05-08T08:38:50.795Z,1.42
2023-05-08T08:40:23.193Z,1.05
2023-05-08T08:41:55.135Z,0.95
2023-05-08T08:43:27.037Z,1.70
2023-05-08T08:44:58.867Z,0.70
2023-05-08T08:46:33.646Z,1.27
2023-05-08T08:48:08.407Z,2.08
2023-05-08T08:49:47.258Z,2.05
2023-05-08T08:51:28.769Z,1.15
2023-05-08T08:53:18.207Z,0.80
2023-05-08T08:54:51.785Z,0.93
2023-05-08T08:56:23.939Z,0.90
2023-05-08T08:58:15.753Z,1.48
2023-05-08T08:59:47.927Z,1.25
2023-05-08T09:01:21.872Z,1.33
2023-05-08T09:02:54.003Z,0.75
2023-05-08T09:04:27.608Z,0.93
2023-05-08T09:06:02.984Z,2.05
2023-05-08T09:07:34.983Z,1.00
2023-05-08T09:09:06.975Z,1.30
2023-05-08T09:10:38.908Z,0.95
2023-05-08T09:12:10.962Z,1.40
2023-05-08T09:13:43.036Z,2.25
2023-05-08T09:15:15.698Z,1.13
2023-05-08T09:16:47.867Z,2.25
2023-05-08T09:18:19.808Z,1.10
2023-05-08T09:19:51.757Z,1.13
2023-05-08T09:21:23.668Z,2.13
2023-05-08T09:22:56.227Z,1.35
2023-05-08T09:24:53.740Z,0.77
2023-05-08T09:26:36.343Z,1.40
2023-05-08T09:28:27.295Z,1.23
2023-05-08T09:30:01.207Z,1.13
2023-05-08T09:31:42.796Z,2.05
2023-05-08T09:33:14.738Z,1.13
2023-05-08T09:34:52.832Z,0.93
2023-05-08T09:36:28.786Z,1.83
2023-05-08T09:38:00.636Z,2.08
2023-05-08T09:39:32.473Z,0.85
2023-05-08T09:41:09.225Z,1.38
2023-05-08T09:42:41.517Z,1.58
2023-05-08T09:44:13.512Z,0.93
2023-05-08T09:45:45.356Z,0.90
2023-05-08T09:47:20.732Z,0.93
2023-05-08T09:48:54.687Z,1.10
2023-05-08T09:50:28.095Z,2.85
2023-05-08T09:52:00.206Z,0.65
2023-05-08T09:53:32.577Z,1.00
2023-05-08T09:55:11.354Z,2.05
2023-05-08T09:56:43.167Z,1.00
2023-05-08T09:58:14.982Z,1.55
2023-05-08T09:59:46.838Z,0.95
2023-05-08T10:01:33.388Z,0.80
2023-05-08T10:03:05.374Z,1.13
2023-05-08T10:04:38.201Z,1.85
2023-05-08T10:06:14.595Z,0.98
2023-05-08T10:07:46.459Z,0.80
2023-05-08T10:09:18.271Z,1.10
2023-05-08T10:10:50.555Z,0.80
2023-05-08T10:12:22.488Z,2.58
2023-05-08T10:13:54.321Z,1.10
2023-05-08T10:15:30.006Z,1.65
2023-05-08T10:17:10.365Z,1.25
2023-05-08T10:18:51.486Z,0.97
2023-05-08T10:20:27.598Z,1.38
2023-05-08T10:22:02.468Z,1.13
2023-05-08T10:23:34.795Z,2.38
2023-05-08T10:25:16.318Z,1.95
2023-05-08T10:27:07.437Z,1.23
2023-05-08T10:28:59.861Z,0.73
2023-05-08T10:30:33.720Z,1.17
2023-05-08T10:32:12.557Z,1.17
2023-05-08T10:33:46.756Z,1.20
2023-05-08T10:35:19.106Z,6.82
2023-05-08T10:36:54.288Z,0.90
2023-05-08T10:38:27.403Z,0.90
2023-05-08T10:40:00.432Z,1.00
2023-05-08T10:41:32.705Z,2.92
2023-05-08T10:43:07.503Z,1.15
2023-05-08T10:44:40.518Z,1.30
2023-05-08T10:46:30.132Z,1.25
2023-05-08T10:48:26.950Z,1.17
2023-05-08T10:50:25.678Z,1.30
2023-05-08T10:52:21.330Z,1.40
2023-05-08T10:53:57.601Z,1.55
2023-05-08T10:55:34.022Z,1.10
2023-05-08T10:57:10.806Z,1.90
2023-05-08T10:58:42.846Z,2.78
2023-05-08T11:00:15.307Z,1.38
2023-05-08T11:01:49.713Z,1.40
2023-05-08T11:03:31.931Z,1.50
2023-05-08T11:05:17.840Z,0.95
2023-05-08T11:06:53.289Z,1.02
2023-05-08T11:08:27.752Z,1.10
2023-05-08T11:10:14.293Z,2.42
2023-05-08T11:11:54.978Z,1.00
2023-05-08T11:13:41.322Z,0.93
2023-05-08T11:15:13.410Z,1.88
2023-05-08T11:16:54.135Z,0.98
2023-05-08T11:18:32.502Z,1.27
2023-05-08T11:20:14.355Z,1.80
2023-05-08T11:22:11.543Z,0.70
2023-05-08T11:23:43.372Z,1.00
2023-05-08T11:25:15.206Z,0.80
2023-05-08T11:26:49.771Z,1.30
2023-05-08T11:28:21.610Z,1.13
2023-05-08T11:30:21.077Z,1.10
2023-05-08T11:31:53.409Z,1.02
2023-05-08T11:33:31.019Z,1.35
2023-05-08T11:35:03.043Z,1.08
2023-05-08T11:36:37.034Z,2.60
2023-05-08T11:38:17.827Z,1.42
2023-05-08T11:39:50.706Z,0.93
2023-05-08T11:41:24.672Z,1.27
2023-05-08T11:42:56.512Z,1.63
2023-05-08T11:44:29.434Z,0.80
2023-05-08T11:46:06.595Z,0.80
2023-05-08T11:47:43.360Z,3.35
2023-05-08T11:49:17.431Z,0.95
2023-05-08T11:50:51.289Z,2.00
2023-05-08T11:52:23.237Z,1.13
2023-05-08T11:53:55.082Z,1.40
2023-05-08T11:55:26.972Z,0.80
2023-05-08T11:56:59.832Z,0.80
2023-05-08T11:58:31.918Z,1.58
2023-05-08T12:00:09.890Z,1.08
2023-05-08T12:01:46.292Z,1.17
2023-05-08T12:03:23.674Z,1.58
2023-05-08T12:04:55.780Z,1.85
2023-05-08T12:06:27.887Z,1.00
2023-05-08T12:08:00.037Z,0.98
2023-05-08T12:09:31.878Z,2.28
2023-05-08T12:11:03.711Z,1.85
2023-05-08T12:12:39.711Z,1.13
2023-05-08T12:14:17.289Z,1.48
2023-05-08T12:15:53.436Z,3.60
2023-05-08T12:17:25.433Z,2.03
2023-05-08T12:18:57.573Z,2.20
2023-05-08T12:20:29.993Z,1.48
2023-05-08T12:22:02.839Z,1.38
2023-05-08T12:23:34.647Z,1.40
2023-05-08T12:25:11.948Z,1.60
2023-05-08T12:26:44.202Z,1.50
2023-05-08T12:28:16.010Z,1.50
2023-05-08T12:29:47.857Z,1.08
2023-05-08T12:31:19.927Z,1.08
2023-05-08T12:32:52.610Z,1.30
2023-05-08T12:34:24.581Z,1.17
2023-05-08T12:35:57.392Z,2.00
2023-05-08T12:37:29.354Z,6.57
2023-05-08T12:39:11.728Z,4.00
2023-05-08T12:40:50.198Z,3.10
2023-05-08T12:42:22.021Z,3.05
2023-05-08T12:43:53.884Z,1.70
2023-05-08T12:45:28.454Z,1.55
2023-05-08T12:47:00.483Z,1.73
2023-05-08T12:48:32.350Z,1.33
2023-05-08T12:50:04.521Z,1.30
2023-05-08T12:51:36.387Z,1.10
2023-05-08T12:53:10.445Z,1.20
2023-05-08T12:54:49.348Z,1.95
2023-05-08T12:56:22.408Z,1.38
2023-05-08T12:58:15.377Z,1.77
2023-05-08T12:59:47.834Z,1.23
2023-05-08T13:01:19.651Z,1.58
2023-05-08T13:02:56.488Z,1.38
2023-05-08T13:04:29.508Z,1.92
2023-05-08T13:06:01.496Z,2.45
2023-05-08T13:07:33.392Z,1.30
2023-05-08T13:09:05.243Z,2.80
2023-05-08T13:10:50.219Z,1.55
2023-05-08T13:12:22.015Z,1.23
2023-05-08T13:13:56.327Z,1.15
2023-05-08T13:15:28.296Z,1.63
2023-05-08T13:17:00.209Z,1.48
2023-05-08T13:18:32.909Z,1.15
2023-05-08T13:20:09.103Z,1.40
2023-05-08T13:21:40.916Z,2.08
2023-05-08T13:23:13.454Z,1.27
2023-05-08T13:24:45.280Z,1.25
2023-05-08T13:26:17.135Z,1.98
2023-05-08T13:27:48.957Z,1.50
2023-05-08T13:29:22.288Z,1.55
2023-05-08T13:30:54.088Z,3.03
2023-05-08T13:32:25.992Z,1.27
2023-05-08T13:33:57.846Z,1.65
2023-05-08T13:35:29.714Z,2.58
2023-05-08T13:37:01.563Z,1.85
2023-05-08T13:38:34.793Z,2.78
2023-05-08T13:40:07.380Z,1.50
2023-05-08T13:41:39.216Z,1.98
2023-05-08T13:43:11.035Z,2.72
2023-05-08T13:44:43.904Z,2.10
2023-05-08T13:46:15.831Z,1.25
2023-05-08T13:47:49.472Z,3.50
2023-05-08T13:49:24.342Z,1.60
2023-05-08T13:50:56.140Z,1.10
2023-05-08T13:52:31.173Z,1.10
2023-05-08T13:54:03.009Z,0.77
2023-05-08T13:55:34.948Z,5.18
2023-05-08T13:57:06.879Z,1.67
2023-05-08T13:58:38.700Z,1.58
2023-05-08T14:00:11.362Z,3.10
2023-05-08T14:01:43.388Z,2.05
2023-05-08T14:03:15.316Z,3.22
2023-05-08T14:04:47.247Z,1.77
2023-05-08T14:06:20.676Z,1.30
2023-05-08T14:07:52.491Z,1.73
2023-05-08T14:09:24.323Z,2.03
2023-05-08T14:10:56.397Z,2.00
2023-05-08T14:12:28.212Z,2.13
2023-05-08T14:14:00.020Z,2.28
2023-05-08T14:15:36.893Z,1.00
2023-05-08T14:17:09.441Z,2.22
2023-05-08T14:18:41.349Z,1.63
2023-05-08T14:20:13.221Z,2.38
2023-05-08T14:21:45.796Z,1.85
2023-05-08T14:23:17.599Z,1.83
2023-05-08T14:24:49.446Z,2.08
2023-05-08T14:26:21.673Z,2.25
2023-05-08T14:27:53.478Z,2.17
2023-05-08T14:29:25.598Z,1.13
2023-05-08T14:30:57.442Z,1.50
2023-05-08T14:32:29.295Z,1.75
2023-05-08T14:34:01.160Z,1.38
2023-05-08T14:35:32.997Z,1.30
2023-05-08T14:37:04.868Z,1.55
2023-05-08T14:38:36.716Z,1.42
2023-05-08T14:40:09.137Z,1.73
2023-05-08T14:41:41.444Z,1.42
2023-05-08T14:43:15.210Z,2.00
2023-05-08T14:44:47.343Z,1.42
2023-05-08T14:46:19.220Z,1.50
2023-05-08T14:47:51.081Z,1.35
2023-05-08T14:51:14.802Z,1.20
2023-05-08T14:52:46.741Z,1.38
2023-05-08T14:54:18.678Z,1.58
2023-05-08T14:55:50.957Z,1.10
2023-05-08T14:57:22.994Z,1.05
2023-05-08T14:58:55.604Z,1.23
2023-05-08T15:00:27.493Z,1.30
2023-05-08T15:01:59.362Z,1.10
2023-05-08T15:03:31.446Z,3.13
2023-05-08T15:05:08.377Z,3.63
2023-05-08T15:06:43.149Z,1.30
2023-05-08T15:08:15.540Z,1.67
2023-05-08T15:09:48.075Z,1.58
2023-05-08T15:11:19.897Z,2.10
2023-05-08T15:12:51.736Z,1.52
2023-05-08T15:14:24.640Z,2.45
2023-05-08T15:15:56.460Z,3.28
2023-05-08T15:17:28.364Z,2.20
2023-05-08T15:19:00.224Z,2.17
2023-05-08T15:20:32.279Z,1.25
2023-05-08T15:22:04.232Z,2.05
2023-05-08T15:23:36.101Z,1.73
2023-05-08T15:25:08.117Z,2.30
2023-05-08T15:26:39.954Z,2.88
2023-05-08T15:28:11.726Z,3.05
2023-05-08T15:29:43.518Z,1.33
2023-05-08T15:31:15.720Z,2.08
2023-05-08T15:32:48.301Z,1.27
2023-05-08T15:34:20.110Z,1.08
2023-05-08T15:35:51.925Z,1.63
2023-05-08T15:37:23.689Z,1.55
2023-05-08T15:38:55.495Z,2.20
2023-05-08T15:40:27.320Z,1.48
2023-05-08T15:41:59.094Z,1.40
2023-05-08T15:43:31.155Z,2.08
2023-05-08T15:45:03.032Z,2.28
2023-05-08T15:46:35.103Z,1.45
2023-05-08T15:48:07.017Z,1.50
2023-05-08T15:49:38.847Z,1.20
2023-05-08T15:51:10.780Z,1.92
2023-05-08T15:52:42.842Z,1.17
2023-05-08T15:54:14.651Z,1.15
2023-05-08T15:55:46.454Z,1.92
2023-05-08T15:57:18.329Z,1.88
2023-05-08T15:58:53.680Z,1.45
2023-05-08T16:00:30.181Z,1.30
2023-05-08T16:02:08.900Z,1.92
2023-05-08T16:03:40.825Z,1.60
2023-05-08T16:05:12.894Z,1.30
2023-05-08T16:06:44.907Z,1.25
2023-05-08T16:08:16.902Z,1.60
2023-05-08T16:09:48.755Z,1.58
2023-05-08T16:11:21.798Z,2.40
2023-05-08T16:12:53.638Z,2.25
2023-05-08T16:14:25.507Z,2.45
2023-05-08T16:16:06.973Z,1.58
2023-05-08T16:17:38.990Z,1.42
2023-05-08T16:19:10.834Z,3.72
2023-05-08T16:20:43.169Z,2.63
2023-05-08T16:22:14.978Z,1.55
2023-05-08T16:23:46.815Z,1.88
2023-05-08T16:25:18.661Z,2.30
2023-05-08T16:26:50.790Z,1.80
2023-05-08T16:28:22.610Z,2.58
2023-05-08T16:29:54.410Z,1.73
2023-05-08T16:31:26.362Z,3.53
2023-05-08T16:32:58.381Z,1.63
2023-05-08T16:34:30.235Z,1.10
2023-05-08T16:36:02.054Z,1.40
2023-05-08T16:37:34.039Z,1.88
2023-05-08T16:39:07.307Z,1.55
2023-05-08T16:40:39.393Z,2.63
2023-05-08T16:42:11.272Z,1.20
2023-05-08T16:43:43.259Z,1.92
2023-05-08T16:45:15.328Z,1.23
2023-05-08T16:46:47.425Z,1.83
2023-05-08T16:48:19.273Z,1.95
2023-05-08T16:49:51.117Z,1.77
2023-05-08T16:51:22.921Z,1.30
2023-05-08T16:52:55.708Z,1.40
2023-05-08T16:54:27.525Z,3.25
2023-05-08T16:55:59.408Z,1.40
2023-05-08T16:57:31.409Z,1.83
2023-05-08T16:59:06.659Z,1.80
2023-05-08T17:00:38.535Z,1.65
2023-05-08T17:02:12.115Z,3.05
2023-05-08T17:03:44.001Z,2.05
2023-05-08T17:05:16.105Z,1.88
2023-05-08T17:06:48.108Z,3.08
2023-05-08T17:08:20.016Z,1.92
2023-05-08T17:09:56.319Z,1.75
2023-05-08T17:11:28.110Z,2.03
2023-05-08T17:12:59.969Z,2.25
2023-05-08T17:14:31.883Z,1.88
2023-05-08T17:16:03.875Z,2.33
2023-05-08T17:17:35.748Z,2.58
2023-05-08T17:19:08.424Z,1.75
2023-05-08T17:20:42.549Z,3.05
2023-05-08T17:22:14.487Z,3.38
2023-05-08T17:23:46.347Z,1.90
2023-05-08T17:25:18.331Z,1.75
2023-05-08T17:26:50.226Z,2.33
2023-05-08T17:28:22.031Z,2.53
2023-05-08T17:29:55.227Z,1.77
2023-05-08T17:31:27.799Z,2.50
2023-05-08T17:32:59.760Z,3.28
2023-05-08T17:34:31.818Z,2.42
2023-05-08T17:36:03.937Z,2.10
2023-05-08T17:37:35.814Z,2.03
2023-05-08T17:39:08.089Z,3.15
2023-05-08T17:40:40.164Z,3.00
2023-05-08T17:42:12.038Z,2.25
2023-05-08T17:43:43.964Z,1.75
2023-05-08T17:45:15.821Z,2.78
2023-05-08T17:46:47.676Z,2.25
2023-05-08T17:48:19.498Z,2.78
2023-05-08T17:49:51.361Z,2.03
2023-05-08T17:51:23.206Z,1.77
2023-05-08T17:52:55.035Z,1.50
2023-05-08T17:54:27.039Z,1.63
2023-05-08T17:55:59.200Z,1.70
2023-05-08T17:57:31.068Z,1.23
2023-05-08T17:59:02.907Z,1.67
2023-05-08T18:00:34.722Z,2.13
2023-05-08T18:02:06.637Z,2.83
2023-05-08T18:03:48.520Z,1.83
2023-05-08T18:05:20.591Z,1.42
2023-05-08T18:06:52.386Z,1.15
2023-05-08T18:08:24.405Z,2.25
2023-05-08T18:09:56.341Z,1.63
2023-05-08T18:11:28.202Z,2.20
2023-05-08T18:13:00.314Z,1.70
2023-05-08T18:14:32.755Z,1.70
2023-05-08T18:16:04.624Z,3.10
2023-05-08T18:17:36.558Z,2.88
2023-05-08T18:19:08.489Z,2.20
2023-05-08T18:20:40.440Z,1.83
2023-05-08T18:22:12.292Z,2.83
2023-05-08T18:23:44.265Z,2.25
2023-05-08T18:25:16.379Z,3.45
2023-05-08T18:26:49.698Z,2.15
2023-05-08T18:28:22.775Z,2.65
2023-05-08T18:29:54.846Z,1.98
2023-05-08T18:31:26.789Z,2.15
2023-05-08T18:32:58.763Z,3.70
2023-05-08T18:34:32.055Z,3.63
2023-05-08T18:36:05.746Z,2.60
2023-05-08T18:37:37.752Z,4.03
2023-05-08T18:39:09.752Z,2.75
2023-05-08T18:40:41.615Z,3.35
2023-05-08T18:42:13.464Z,4.15
2023-05-08T18:43:45.514Z,3.70
2023-05-08T18:45:17.491Z,3.15
2023-05-08T18:46:49.544Z,2.70
2023-05-08T18:48:21.598Z,4.00
2023-05-08T18:49:53.528Z,2.40
2023-05-08T18:51:25.360Z,3.42
2023-05-08T18:52:57.221Z,2.83
2023-05-08T18:54:29.070Z,3.20
2023-05-08T18:56:03.481Z,2.40
2023-05-08T18:57:35.486Z,3.72
2023-05-08T18:59:07.421Z,3.75
2023-05-08T19:00:39.350Z,2.47
2023-05-08T19:02:11.429Z,2.95
2023-05-08T19:03:43.331Z,3.30
2023-05-08T19:05:15.272Z,3.03
2023-05-08T19:06:47.100Z,3.63
2023-05-08T19:08:18.919Z,3.08
2023-05-08T19:09:50.788Z,3.75
2023-05-08T19:11:22.895Z,4.30
2023-05-08T19:12:54.791Z,3.50
2023-05-08T19:14:27.059Z,4.57
2023-05-08T19:15:58.944Z,4.05
2023-05-08T19:17:30.809Z,4.53
2023-05-08T19:19:02.765Z,3.40
2023-05-08T19:20:35.049Z,5.78
2023-05-08T19:22:07.609Z,2.85
2023-05-08T19:23:39.517Z,4.57
2023-05-08T19:25:12.835Z,4.22
2023-05-08T19:26:44.686Z,3.08
2023-05-08T19:28:16.580Z,3.55
2023-05-08T19:29:48.464Z,2.70
2023-05-08T19:31:20.764Z,2.78
2023-05-08T19:32:52.652Z,4.97
2023-05-08T19:34:24.554Z,3.50
2023-05-08T19:35:56.468Z,4.03
2023-05-08T19:37:29.298Z,2.78
2023-05-08T19:39:02.549Z,3.53
2023-05-08T19:40:41.294Z,3.05
2023-05-08T19:42:24.155Z,3.65
2023-05-08T19:43:56.313Z,3.25
2023-05-08T19:45:28.129Z,2.40
2023-05-08T19:47:03.082Z,4.47
2023-05-08T19:48:35.744Z,6.80
2023-05-08T19:50:08.349Z,4.03
2023-05-08T19:51:40.163Z,4.28
2023-05-08T19:53:12.079Z,4.00
2023-05-08T19:54:45.871Z,3.85
2023-05-08T19:56:18.014Z,3.10
2023-05-08T19:57:49.962Z,3.58
2023-05-08T19:59:21.928Z,3.20
2023-05-08T20:00:53.730Z,2.70
2023-05-08T20:02:25.702Z,4.13
2023-05-08T20:04:00.385Z,3.00
2023-05-08T20:05:32.786Z,3.47
2023-05-08T20:07:04.706Z,3.97
2023-05-08T20:08:36.549Z,3.83
2023-05-08T20:10:09.028Z,3.47
2023-05-08T20:11:40.859Z,3.08
2023-05-08T20:13:12.760Z,3.33
2023-05-08T20:14:44.698Z,3.10
2023-05-08T20:16:16.607Z,3.03
2023-05-08T20:17:48.612Z,3.47
2023-05-08T20:19:20.704Z,4.75
2023-05-08T20:20:52.522Z,3.13
2023-05-08T20:22:24.351Z,2.63
2023-05-08T20:23:56.134Z,4.50
2023-05-08T20:25:28.007Z,3.22
2023-05-08T20:26:59.966Z,2.30
2023-05-08T20:28:31.799Z,3.25
2023-05-08T20:30:04.464Z,4.00
2023-05-08T20:31:36.437Z,3.63
2023-05-08T20:33:08.268Z,2.53
2023-05-08T20:34:41.010Z,2.70
2023-05-08T20:36:13.205Z,5.18
2023-05-08T20:37:46.684Z,2.63
2023-05-08T20:39:18.626Z,2.83
2023-05-08T20:40:50.639Z,2.45
2023-05-08T20:42:22.449Z,2.55
2023-05-08T20:43:54.277Z,2.92
2023-05-08T20:45:26.175Z,4.03
2023-05-08T20:46:57.983Z,3.20
2023-05-08T20:48:29.930Z,4.00
2023-05-08T20:50:02.030Z,3.10
2023-05-08T20:51:33.854Z,3.05
2023-05-08T20:53:05.791Z,3.58
2023-05-08T20:54:37.615Z,3.03